Overview Statistics Trail Chart Weather Telemetry Raw packets
 

This is the latest recevied weather packets stored in our database for station/object K5KVN. If no packets are shown the sender has not sent any weather packets the latest 10 day(s).

<< 19 20 21 22 23 24 25 >>
Time Temp. Humidity Pressure Rain* Wind** Luminosity Snow
1788389723 35° C 45% 1014.7 hPa 0 mm - - -
1788389121 35.56° C 43% 1014.7 hPa 0 mm - - -
1788388519 36.11° C 42% 1014.8 hPa 0 mm - - -
1788387920 36.67° C 41% 1015 hPa 0 mm - - -
1788387319 36.11° C 42% 1015 hPa 0 mm - - -
1788386719 36.11° C 43% 1015.1 hPa 0 mm - - -
1788386119 36.11° C 42% 1015.1 hPa 0 mm - - -
1788385581 36.11° C 42% 1015.2 hPa 0 mm - - -
1788384923 36.67° C 41% 1015.2 hPa 0 mm - - -
1788384378 37.22° C 41% 1015.2 hPa 0 mm - - -
1788383718 35.56° C 43% 1015.4 hPa 0 mm - - -
1788383117 35.56° C 44% 1015.4 hPa 0 mm - - -
1788382517 36.67° C 42% 1015.5 hPa 0 mm - - -
1788381917 38.33° C 39% 1015.6 hPa 0 mm - - -
1788381318 38.33° C 39% 1015.7 hPa 0 mm - - -
1788380717 37.78° C 41% 1015.8 hPa 0 mm - - -
1788380178 37.78° C 40% 1016 hPa 0 mm - - -
1788379517 36.67° C 41% 1016.3 hPa 0 mm - - -
1788378918 38.33° C 39% 1016.4 hPa 0 mm - - -
1788378316 38.33° C 39% 1016.6 hPa 0 mm - - -
1788377718 37.78° C 40% 1016.6 hPa 0 mm - - -
1788377118 36.67° C 42% 1016.7 hPa 0 mm - - -
1788376517 37.78° C 39% 1016.8 hPa 0 mm - - -
1788375917 36.67° C 42% 1017 hPa 0 mm - - -
1788375377 37.22° C 42% 1017.1 hPa 0 mm - - -

* Rain latest hour (hover to see other rain measurements)
** Current wind speed in m/s (hover to see current wind gust speed)